sensor_id;sensor_type;location;lat;lon;timestamp;temperature;humidity
11925;DHT22;6022;48.768;18.608;2023-03-01T00:01:53;-0.70;99.90
11925;DHT22;6022;48.768;18.608;2023-03-01T00:04:24;-0.60;99.90
11925;DHT22;6022;48.768;18.608;2023-03-01T00:06:52;-0.60;99.90
11925;DHT22;6022;48.768;18.608;2023-03-01T00:09:19;-0.30;99.90
11925;DHT22;6022;48.768;18.608;2023-03-01T00:11:47;-0.30;99.90
11925;DHT22;6022;48.768;18.608;2023-03-01T00:14:36;-0.30;99.90
11925;DHT22;6022;48.768;18.608;2023-03-01T00:17:03;-0.30;99.90
11925;DHT22;6022;48.768;18.608;2023-03-01T00:19:31;-0.10;99.90
11925;DHT22;6022;48.768;18.608;2023-03-01T00:22:01;0.00;99.90
11925;DHT22;6022;48.768;18.608;2023-03-01T00:24:28;0.10;99.90
11925;DHT22;6022;48.768;18.608;2023-03-01T00:27:02;0.20;99.90
11925;DHT22;6022;48.768;18.608;2023-03-01T00:29:32;0.20;99.90
11925;DHT22;6022;48.768;18.608;2023-03-01T00:31:59;0.20;99.90
11925;DHT22;6022;48.768;18.608;2023-03-01T00:34:30;0.00;99.90
11925;DHT22;6022;48.768;18.608;2023-03-01T00:37:00;0.00;99.90
11925;DHT22;6022;48.768;18.608;2023-03-01T00:39:36;0.30;99.90
11925;DHT22;6022;48.768;18.608;2023-03-01T00:42:03;0.00;99.90
11925;DHT22;6022;48.768;18.608;2023-03-01T00:44:35;0.40;99.90
11925;DHT22;6022;48.768;18.608;2023-03-01T00:47:06;0.60;99.90
11925;DHT22;6022;48.768;18.608;2023-03-01T00:49:34;0.40;99.90
11925;DHT22;6022;48.768;18.608;2023-03-01T00:52:10;0.40;99.90
11925;DHT22;6022;48.768;18.608;2023-03-01T00:54:38;0.60;99.90
11925;DHT22;6022;48.768;18.608;2023-03-01T00:57:05;0.30;99.90
11925;DHT22;6022;48.768;18.608;2023-03-01T00:59:49;0.30;99.90
11925;DHT22;6022;48.768;18.608;2023-03-01T01:02:24;0.00;99.90
11925;DHT22;6022;48.768;18.608;2023-03-01T01:04:51;0.40;99.90
11925;DHT22;6022;48.768;18.608;2023-03-01T01:07:19;0.40;99.90
11925;DHT22;6022;48.768;18.608;2023-03-01T01:09:49;0.30;99.90
11925;DHT22;6022;48.768;18.608;2023-03-01T01:12:16;1.40;99.90
11925;DHT22;6022;48.768;18.608;2023-03-01T01:14:53;0.50;99.90
11925;DHT22;6022;48.768;18.608;2023-03-01T01:17:21;1.50;99.90
11925;DHT22;6022;48.768;18.608;2023-03-01T01:19:51;0.50;99.90
11925;DHT22;6022;48.768;18.608;2023-03-01T01:22:21;0.50;99.90
11925;DHT22;6022;48.768;18.608;2023-03-01T01:24:50;0.20;99.90
11925;DHT22;6022;48.768;18.608;2023-03-01T01:27:17;0.70;99.90
11925;DHT22;6022;48.768;18.608;2023-03-01T01:29:45;1.60;99.90
11925;DHT22;6022;48.768;18.608;2023-03-01T01:32:13;0.60;99.90
11925;DHT22;6022;48.768;18.608;2023-03-01T01:34:44;0.40;99.90
11925;DHT22;6022;48.768;18.608;2023-03-01T01:37:13;0.60;99.90
11925;DHT22;6022;48.768;18.608;2023-03-01T01:39:40;0.60;99.90
11925;DHT22;6022;48.768;18.608;2023-03-01T01:42:16;0.60;99.90
11925;DHT22;6022;48.768;18.608;2023-03-01T01:44:48;0.60;99.90
11925;DHT22;6022;48.768;18.608;2023-03-01T01:47:38;0.40;99.90
11925;DHT22;6022;48.768;18.608;2023-03-01T01:50:08;0.60;99.90
11925;DHT22;6022;48.768;18.608;2023-03-01T01:52:43;0.60;99.90
11925;DHT22;6022;48.768;18.608;2023-03-01T01:55:19;0.60;99.90
11925;DHT22;6022;48.768;18.608;2023-03-01T01:57:55;0.50;99.90
11925;DHT22;6022;48.768;18.608;2023-03-01T02:00:27;0.70;99.90
11925;DHT22;6022;48.768;18.608;2023-03-01T02:02:59;0.70;99.90
11925;DHT22;6022;48.768;18.608;2023-03-01T02:08:02;0.90;99.90
11925;DHT22;6022;48.768;18.608;2023-03-01T02:10:32;0.70;99.90
11925;DHT22;6022;48.768;18.608;2023-03-01T02:13:03;0.90;99.90
11925;DHT22;6022;48.768;18.608;2023-03-01T02:15:35;1.40;99.90
11925;DHT22;6022;48.768;18.608;2023-03-01T02:18:07;0.90;99.90
11925;DHT22;6022;48.768;18.608;2023-03-01T02:24:15;0.70;99.90
11925;DHT22;6022;48.768;18.608;2023-03-01T02:26:55;0.70;99.90
11925;DHT22;6022;48.768;18.608;2023-03-01T02:29:29;0.60;99.90
11925;DHT22;6022;48.768;18.608;2023-03-01T02:31:58;0.90;99.90
11925;DHT22;6022;48.768;18.608;2023-03-01T02:34:31;0.50;99.90
11925;DHT22;6022;48.768;18.608;2023-03-01T02:37:10;0.80;99.90
11925;DHT22;6022;48.768;18.608;2023-03-01T02:39:53;0.70;99.90
11925;DHT22;6022;48.768;18.608;2023-03-01T02:42:33;0.80;99.90
11925;DHT22;6022;48.768;18.608;2023-03-01T02:45:08;0.80;99.90
11925;DHT22;6022;48.768;18.608;2023-03-01T02:47:38;0.70;99.90
11925;DHT22;6022;48.768;18.608;2023-03-01T02:53:09;0.80;99.90
11925;DHT22;6022;48.768;18.608;2023-03-01T02:55:43;0.80;99.90
11925;DHT22;6022;48.768;18.608;2023-03-01T02:58:10;1.00;99.90
11925;DHT22;6022;48.768;18.608;2023-03-01T03:00:42;0.90;99.90
11925;DHT22;6022;48.768;18.608;2023-03-01T03:03:14;0.70;99.90
11925;DHT22;6022;48.768;18.608;2023-03-01T03:05:43;0.80;99.90
11925;DHT22;6022;48.768;18.608;2023-03-01T03:08:13;0.80;99.90
11925;DHT22;6022;48.768;18.608;2023-03-01T03:10:43;1.10;99.90
11925;DHT22;6022;48.768;18.608;2023-03-01T03:13:13;0.80;99.90
11925;DHT22;6022;48.768;18.608;2023-03-01T03:15:42;1.10;99.90
11925;DHT22;6022;48.768;18.608;2023-03-01T03:18:16;1.00;99.90
11925;DHT22;6022;48.768;18.608;2023-03-01T03:20:45;1.00;99.90
11925;DHT22;6022;48.768;18.608;2023-03-01T03:23:13;0.80;99.90
11925;DHT22;6022;48.768;18.608;2023-03-01T03:25:44;0.90;99.90
11925;DHT22;6022;48.768;18.608;2023-03-01T03:28:25;1.10;99.90
11925;DHT22;6022;48.768;18.608;2023-03-01T03:30:52;0.90;99.90
11925;DHT22;6022;48.768;18.608;2023-03-01T03:33:20;1.10;99.90
11925;DHT22;6022;48.768;18.608;2023-03-01T03:35:48;0.80;99.90
11925;DHT22;6022;48.768;18.608;2023-03-01T03:38:18;1.00;99.90
11925;DHT22;6022;48.768;18.608;2023-03-01T03:40:59;1.30;99.90
11925;DHT22;6022;48.768;18.608;2023-03-01T03:43:32;0.70;99.90
11925;DHT22;6022;48.768;18.608;2023-03-01T03:46:01;1.10;99.90
11925;DHT22;6022;48.768;18.608;2023-03-01T03:48:41;0.70;99.90
11925;DHT22;6022;48.768;18.608;2023-03-01T03:51:14;1.10;99.90
11925;DHT22;6022;48.768;18.608;2023-03-01T03:53:44;1.20;99.90
11925;DHT22;6022;48.768;18.608;2023-03-01T03:56:13;0.90;99.90
11925;DHT22;6022;48.768;18.608;2023-03-01T03:58:41;0.90;99.90
11925;DHT22;6022;48.768;18.608;2023-03-01T04:01:08;1.10;99.90
11925;DHT22;6022;48.768;18.608;2023-03-01T04:03:36;1.00;99.90
11925;DHT22;6022;48.768;18.608;2023-03-01T04:06:03;1.10;99.90
11925;DHT22;6022;48.768;18.608;2023-03-01T04:08:32;1.10;99.90
11925;DHT22;6022;48.768;18.608;2023-03-01T04:11:04;1.00;99.90
11925;DHT22;6022;48.768;18.608;2023-03-01T04:13:52;1.10;99.90
11925;DHT22;6022;48.768;18.608;2023-03-01T04:16:22;1.30;99.90
11925;DHT22;6022;48.768;18.608;2023-03-01T04:18:50;1.30;99.90
11925;DHT22;6022;48.768;18.608;2023-03-01T04:21:19;1.00;99.90
11925;DHT22;6022;48.768;18.608;2023-03-01T04:23:47;1.00;99.90
11925;DHT22;6022;48.768;18.608;2023-03-01T04:26:15;1.10;99.90
11925;DHT22;6022;48.768;18.608;2023-03-01T04:28:43;1.10;99.90
11925;DHT22;6022;48.768;18.608;2023-03-01T04:31:19;1.30;99.90
11925;DHT22;6022;48.768;18.608;2023-03-01T04:33:53;1.40;99.90
11925;DHT22;6022;48.768;18.608;2023-03-01T04:36:25;1.20;99.90
11925;DHT22;6022;48.768;18.608;2023-03-01T04:38:55;1.10;99.90
11925;DHT22;6022;48.768;18.608;2023-03-01T04:41:24;1.40;99.90
11925;DHT22;6022;48.768;18.608;2023-03-01T04:43:52;1.20;99.90
11925;DHT22;6022;48.768;18.608;2023-03-01T04:46:27;1.20;99.90
11925;DHT22;6022;48.768;18.608;2023-03-01T04:48:54;1.00;99.90
11925;DHT22;6022;48.768;18.608;2023-03-01T04:51:22;1.20;99.90
11925;DHT22;6022;48.768;18.608;2023-03-01T04:53:50;1.20;99.90
11925;DHT22;6022;48.768;18.608;2023-03-01T04:56:34;1.00;99.90
11925;DHT22;6022;48.768;18.608;2023-03-01T04:59:01;1.00;99.90
11925;DHT22;6022;48.768;18.608;2023-03-01T05:01:32;1.00;99.90
11925;DHT22;6022;48.768;18.608;2023-03-01T05:04:00;1.10;99.90
11925;DHT22;6022;48.768;18.608;2023-03-01T05:06:32;0.80;99.90
11925;DHT22;6022;48.768;18.608;2023-03-01T05:09:00;0.90;99.90
11925;DHT22;6022;48.768;18.608;2023-03-01T05:11:28;0.80;99.90
11925;DHT22;6022;48.768;18.608;2023-03-01T05:14:00;1.10;99.90
11925;DHT22;6022;48.768;18.608;2023-03-01T05:16:27;1.00;99.90
11925;DHT22;6022;48.768;18.608;2023-03-01T05:18:55;0.90;99.90
11925;DHT22;6022;48.768;18.608;2023-03-01T05:21:24;0.70;99.90
11925;DHT22;6022;48.768;18.608;2023-03-01T05:23:52;0.70;99.90
11925;DHT22;6022;48.768;18.608;2023-03-01T05:26:20;0.80;99.90
11925;DHT22;6022;48.768;18.608;2023-03-01T05:29:05;0.50;99.90
11925;DHT22;6022;48.768;18.608;2023-03-01T05:31:36;0.70;99.90
11925;DHT22;6022;48.768;18.608;2023-03-01T05:34:06;0.80;99.90
11925;DHT22;6022;48.768;18.608;2023-03-01T05:36:33;0.60;99.90
11925;DHT22;6022;48.768;18.608;2023-03-01T05:39:01;0.70;99.90
11925;DHT22;6022;48.768;18.608;2023-03-01T05:41:29;0.60;99.90
11925;DHT22;6022;48.768;18.608;2023-03-01T05:43:56;0.40;99.90
11925;DHT22;6022;48.768;18.608;2023-03-01T05:46:23;0.50;99.90
11925;DHT22;6022;48.768;18.608;2023-03-01T05:48:51;0.60;99.90
11925;DHT22;6022;48.768;18.608;2023-03-01T05:51:18;0.50;99.90
11925;DHT22;6022;48.768;18.608;2023-03-01T05:53:46;0.50;99.90
11925;DHT22;6022;48.768;18.608;2023-03-01T05:56:14;0.40;99.90
11925;DHT22;6022;48.768;18.608;2023-03-01T05:58:41;0.60;99.90
11925;DHT22;6022;48.768;18.608;2023-03-01T06:01:12;1.70;99.90
11925;DHT22;6022;48.768;18.608;2023-03-01T06:03:40;0.90;99.90
11925;DHT22;6022;48.768;18.608;2023-03-01T06:06:08;0.70;99.90
11925;DHT22;6022;48.768;18.608;2023-03-01T06:08:35;0.80;99.90
11925;DHT22;6022;48.768;18.608;2023-03-01T06:11:02;1.10;99.90
11925;DHT22;6022;48.768;18.608;2023-03-01T06:13:30;0.90;99.90
11925;DHT22;6022;48.768;18.608;2023-03-01T06:16:03;1.20;99.90
11925;DHT22;6022;48.768;18.608;2023-03-01T06:18:35;1.00;99.90
11925;DHT22;6022;48.768;18.608;2023-03-01T06:21:05;1.10;99.90
11925;DHT22;6022;48.768;18.608;2023-03-01T06:23:34;1.40;99.90
11925;DHT22;6022;48.768;18.608;2023-03-01T06:26:06;1.40;99.90
11925;DHT22;6022;48.768;18.608;2023-03-01T06:28:35;1.70;99.90
11925;DHT22;6022;48.768;18.608;2023-03-01T06:31:03;1.60;99.90
11925;DHT22;6022;48.768;18.608;2023-03-01T06:33:31;1.80;99.90
11925;DHT22;6022;48.768;18.608;2023-03-01T06:35:58;2.20;99.90
11925;DHT22;6022;48.768;18.608;2023-03-01T06:38:28;3.00;99.90
11925;DHT22;6022;48.768;18.608;2023-03-01T06:40:56;2.10;99.90
11925;DHT22;6022;48.768;18.608;2023-03-01T06:43:24;2.60;99.90
11925;DHT22;6022;48.768;18.608;2023-03-01T06:45:52;2.20;99.90
11925;DHT22;6022;48.768;18.608;2023-03-01T06:48:20;2.20;99.90
11925;DHT22;6022;48.768;18.608;2023-03-01T06:50:47;2.20;99.90
11925;DHT22;6022;48.768;18.608;2023-03-01T06:53:16;2.00;99.90
11925;DHT22;6022;48.768;18.608;2023-03-01T06:55:43;2.40;99.90
11925;DHT22;6022;48.768;18.608;2023-03-01T06:58:11;2.20;99.90
11925;DHT22;6022;48.768;18.608;2023-03-01T07:00:38;2.10;99.90
11925;DHT22;6022;48.768;18.608;2023-03-01T07:03:08;2.30;99.90
11925;DHT22;6022;48.768;18.608;2023-03-01T07:05:36;2.40;99.90
11925;DHT22;6022;48.768;18.608;2023-03-01T07:08:03;2.40;99.90
11925;DHT22;6022;48.768;18.608;2023-03-01T07:10:30;2.40;99.90
11925;DHT22;6022;48.768;18.608;2023-03-01T07:12:58;2.60;99.90
11925;DHT22;6022;48.768;18.608;2023-03-01T07:15:26;2.20;99.90
11925;DHT22;6022;48.768;18.608;2023-03-01T07:17:56;2.30;99.90
11925;DHT22;6022;48.768;18.608;2023-03-01T07:20:26;2.30;99.90
11925;DHT22;6022;48.768;18.608;2023-03-01T07:22:58;2.30;99.90
11925;DHT22;6022;48.768;18.608;2023-03-01T07:25:26;2.30;99.90
11925;DHT22;6022;48.768;18.608;2023-03-01T07:28:01;2.30;99.90
11925;DHT22;6022;48.768;18.608;2023-03-01T07:30:28;2.00;99.90
11925;DHT22;6022;48.768;18.608;2023-03-01T07:32:56;2.50;99.90
11925;DHT22;6022;48.768;18.608;2023-03-01T07:35:26;2.50;99.90
11925;DHT22;6022;48.768;18.608;2023-03-01T07:37:56;2.70;99.90
11925;DHT22;6022;48.768;18.608;2023-03-01T07:40:25;2.50;99.90
11925;DHT22;6022;48.768;18.608;2023-03-01T07:42:57;2.80;99.90
11925;DHT22;6022;48.768;18.608;2023-03-01T07:45:25;2.80;99.90
11925;DHT22;6022;48.768;18.608;2023-03-01T07:47:53;2.60;99.90
11925;DHT22;6022;48.768;18.608;2023-03-01T07:50:24;3.00;99.90
11925;DHT22;6022;48.768;18.608;2023-03-01T07:52:51;3.20;99.90
11925;DHT22;6022;48.768;18.608;2023-03-01T07:55:18;3.40;99.90
11925;DHT22;6022;48.768;18.608;2023-03-01T07:57:47;3.70;99.90
11925;DHT22;6022;48.768;18.608;2023-03-01T08:00:15;3.80;99.90
11925;DHT22;6022;48.768;18.608;2023-03-01T08:02:42;4.10;99.90
11925;DHT22;6022;48.768;18.608;2023-03-01T08:05:10;4.10;99.90
11925;DHT22;6022;48.768;18.608;2023-03-01T08:07:37;4.30;99.90
11925;DHT22;6022;48.768;18.608;2023-03-01T08:10:05;4.30;99.90
11925;DHT22;6022;48.768;18.608;2023-03-01T08:12:33;4.30;99.90
11925;DHT22;6022;48.768;18.608;2023-03-01T08:15:00;4.30;99.90
11925;DHT22;6022;48.768;18.608;2023-03-01T08:17:28;4.40;99.90
11925;DHT22;6022;48.768;18.608;2023-03-01T08:19:55;4.30;99.90
11925;DHT22;6022;48.768;18.608;2023-03-01T08:22:23;4.00;99.90
11925;DHT22;6022;48.768;18.608;2023-03-01T08:24:50;4.20;99.90
11925;DHT22;6022;48.768;18.608;2023-03-01T08:27:18;4.20;99.90
11925;DHT22;6022;48.768;18.608;2023-03-01T08:29:45;4.20;99.90
11925;DHT22;6022;48.768;18.608;2023-03-01T08:32:13;4.40;99.90
11925;DHT22;6022;48.768;18.608;2023-03-01T08:34:40;4.50;99.90
11925;DHT22;6022;48.768;18.608;2023-03-01T08:37:11;4.60;99.90
11925;DHT22;6022;48.768;18.608;2023-03-01T08:39:38;4.30;99.90
11925;DHT22;6022;48.768;18.608;2023-03-01T08:42:06;4.30;99.90
11925;DHT22;6022;48.768;18.608;2023-03-01T08:44:35;4.50;99.90
11925;DHT22;6022;48.768;18.608;2023-03-01T08:47:03;4.70;99.90
11925;DHT22;6022;48.768;18.608;2023-03-01T08:49:33;4.70;99.90
11925;DHT22;6022;48.768;18.608;2023-03-01T08:52:04;4.80;99.90
11925;DHT22;6022;48.768;18.608;2023-03-01T08:54:31;5.20;99.90
11925;DHT22;6022;48.768;18.608;2023-03-01T08:57:04;5.30;99.90
11925;DHT22;6022;48.768;18.608;2023-03-01T08:59:32;5.10;99.90
11925;DHT22;6022;48.768;18.608;2023-03-01T09:02:05;5.00;99.90
11925;DHT22;6022;48.768;18.608;2023-03-01T09:04:38;5.10;99.90
11925;DHT22;6022;48.768;18.608;2023-03-01T09:07:06;5.40;99.90
11925;DHT22;6022;48.768;18.608;2023-03-01T09:09:34;5.30;99.90
11925;DHT22;6022;48.768;18.608;2023-03-01T09:12:03;5.30;99.90
11925;DHT22;6022;48.768;18.608;2023-03-01T09:14:30;5.40;99.90
11925;DHT22;6022;48.768;18.608;2023-03-01T09:16:58;5.60;99.90
11925;DHT22;6022;48.768;18.608;2023-03-01T09:19:25;5.70;99.90
11925;DHT22;6022;48.768;18.608;2023-03-01T09:21:53;5.60;99.90
11925;DHT22;6022;48.768;18.608;2023-03-01T09:24:22;5.70;99.90
11925;DHT22;6022;48.768;18.608;2023-03-01T09:26:53;5.60;99.90
11925;DHT22;6022;48.768;18.608;2023-03-01T09:29:23;5.70;99.90
11925;DHT22;6022;48.768;18.608;2023-03-01T09:31:51;5.80;99.90
11925;DHT22;6022;48.768;18.608;2023-03-01T09:34:22;5.80;99.90
11925;DHT22;6022;48.768;18.608;2023-03-01T09:36:52;6.10;99.90
11925;DHT22;6022;48.768;18.608;2023-03-01T09:39:20;6.10;99.90
11925;DHT22;6022;48.768;18.608;2023-03-01T09:42:02;5.80;99.90
11925;DHT22;6022;48.768;18.608;2023-03-01T09:47:18;6.40;99.90
11925;DHT22;6022;48.768;18.608;2023-03-01T09:50:16;6.20;99.90
11925;DHT22;6022;48.768;18.608;2023-03-01T09:53:16;6.20;99.90
11925;DHT22;6022;48.768;18.608;2023-03-01T09:56:02;6.30;99.90
11925;DHT22;6022;48.768;18.608;2023-03-01T10:09:42;6.80;99.90
11925;DHT22;6022;48.768;18.608;2023-03-01T10:12:22;7.20;99.90
11925;DHT22;6022;48.768;18.608;2023-03-01T10:15:00;7.30;99.90
11925;DHT22;6022;48.768;18.608;2023-03-01T10:17:48;8.40;99.90
11925;DHT22;6022;48.768;18.608;2023-03-01T10:20:33;8.60;99.90
11925;DHT22;6022;48.768;18.608;2023-03-01T10:23:10;9.40;99.90
11925;DHT22;6022;48.768;18.608;2023-03-01T10:28:37;9.50;99.90
11925;DHT22;6022;48.768;18.608;2023-03-01T10:31:19;10.00;99.90
11925;DHT22;6022;48.768;18.608;2023-03-01T10:33:55;10.00;99.90
11925;DHT22;6022;48.768;18.608;2023-03-01T10:36:26;10.20;99.90
11925;DHT22;6022;48.768;18.608;2023-03-01T10:38:56;10.50;99.90
11925;DHT22;6022;48.768;18.608;2023-03-01T10:41:27;10.80;99.90
11925;DHT22;6022;48.768;18.608;2023-03-01T10:43:57;10.50;97.80
11925;DHT22;6022;48.768;18.608;2023-03-01T10:46:36;10.40;97.90
11925;DHT22;6022;48.768;18.608;2023-03-01T10:51:51;11.20;96.00
11925;DHT22;6022;48.768;18.608;2023-03-01T10:54:31;11.70;96.80
11925;DHT22;6022;48.768;18.608;2023-03-01T10:57:01;11.50;93.80
11925;DHT22;6022;48.768;18.608;2023-03-01T10:59:32;11.50;94.60
11925;DHT22;6022;48.768;18.608;2023-03-01T11:02:23;11.80;94.50
11925;DHT22;6022;48.768;18.608;2023-03-01T11:05:13;11.60;92.30
11925;DHT22;6022;48.768;18.608;2023-03-01T11:07:54;11.50;93.30
11925;DHT22;6022;48.768;18.608;2023-03-01T11:10:34;11.80;92.40
11925;DHT22;6022;48.768;18.608;2023-03-01T11:13:08;11.40;91.10
11925;DHT22;6022;48.768;18.608;2023-03-01T11:16:02;11.20;91.70
11925;DHT22;6022;48.768;18.608;2023-03-01T11:18:33;11.30;92.00
11925;DHT22;6022;48.768;18.608;2023-03-01T11:21:15;11.30;91.20
11925;DHT22;6022;48.768;18.608;2023-03-01T11:23:45;11.90;91.00
11925;DHT22;6022;48.768;18.608;2023-03-01T11:26:15;12.30;90.80
11925;DHT22;6022;48.768;18.608;2023-03-01T11:28:48;12.30;91.00
11925;DHT22;6022;48.768;18.608;2023-03-01T11:31:40;12.70;88.40
11925;DHT22;6022;48.768;18.608;2023-03-01T11:34:48;12.20;89.70
11925;DHT22;6022;48.768;18.608;2023-03-01T11:37:35;12.10;89.70
11925;DHT22;6022;48.768;18.608;2023-03-01T11:40:11;12.10;90.50
11925;DHT22;6022;48.768;18.608;2023-03-01T11:43:22;12.20;90.80
11925;DHT22;6022;48.768;18.608;2023-03-01T11:48:44;13.30;90.30
11925;DHT22;6022;48.768;18.608;2023-03-01T11:55:01;12.70;90.30
11925;DHT22;6022;48.768;18.608;2023-03-01T12:07:51;14.00;90.70
11925;DHT22;6022;48.768;18.608;2023-03-01T12:10:30;14.60;90.60
11925;DHT22;6022;48.768;18.608;2023-03-01T12:13:21;14.60;90.80
11925;DHT22;6022;48.768;18.608;2023-03-01T12:19:08;14.20;92.60
11925;DHT22;6022;48.768;18.608;2023-03-01T12:38:36;14.10;91.70
11925;DHT22;6022;48.768;18.608;2023-03-01T12:41:31;13.90;92.10
11925;DHT22;6022;48.768;18.608;2023-03-01T12:44:59;14.10;92.10
11925;DHT22;6022;48.768;18.608;2023-03-01T12:50:24;14.70;91.30
11925;DHT22;6022;48.768;18.608;2023-03-01T12:52:57;14.30;90.80
11925;DHT22;6022;48.768;18.608;2023-03-01T12:55:36;14.90;91.50
11925;DHT22;6022;48.768;18.608;2023-03-01T12:58:35;14.90;91.00
11925;DHT22;6022;48.768;18.608;2023-03-01T13:05:06;14.90;90.70
11925;DHT22;6022;48.768;18.608;2023-03-01T13:13:14;14.70;91.30
11925;DHT22;6022;48.768;18.608;2023-03-01T13:15:51;14.60;91.20
11925;DHT22;6022;48.768;18.608;2023-03-01T13:20:49;14.80;90.40
11925;DHT22;6022;48.768;18.608;2023-03-01T13:28:55;14.60;90.40
11925;DHT22;6022;48.768;18.608;2023-03-01T13:33:55;14.70;90.10
11925;DHT22;6022;48.768;18.608;2023-03-01T13:39:30;14.80;90.90
11925;DHT22;6022;48.768;18.608;2023-03-01T13:42:35;14.50;90.40
11925;DHT22;6022;48.768;18.608;2023-03-01T13:45:25;14.30;91.00
11925;DHT22;6022;48.768;18.608;2023-03-01T13:48:18;14.70;90.80
11925;DHT22;6022;48.768;18.608;2023-03-01T13:51:02;14.70;91.30
11925;DHT22;6022;48.768;18.608;2023-03-01T13:53:35;14.40;90.80
11925;DHT22;6022;48.768;18.608;2023-03-01T13:59:37;14.00;90.80
11925;DHT22;6022;48.768;18.608;2023-03-01T14:02:16;14.00;91.30
11925;DHT22;6022;48.768;18.608;2023-03-01T14:04:55;14.10;92.00
11925;DHT22;6022;48.768;18.608;2023-03-01T14:07:25;14.20;91.90
11925;DHT22;6022;48.768;18.608;2023-03-01T14:10:11;14.00;92.30
11925;DHT22;6022;48.768;18.608;2023-03-01T14:16:10;13.70;92.90
11925;DHT22;6022;48.768;18.608;2023-03-01T14:18:56;13.20;93.80
11925;DHT22;6022;48.768;18.608;2023-03-01T14:22:22;13.40;93.10
11925;DHT22;6022;48.768;18.608;2023-03-01T14:25:16;13.20;93.60
11925;DHT22;6022;48.768;18.608;2023-03-01T14:30:49;13.20;93.60
11925;DHT22;6022;48.768;18.608;2023-03-01T14:33:29;12.90;93.50
11925;DHT22;6022;48.768;18.608;2023-03-01T14:36:06;12.90;94.30
11925;DHT22;6022;48.768;18.608;2023-03-01T14:38:43;12.90;93.90
11925;DHT22;6022;48.768;18.608;2023-03-01T14:41:17;12.90;93.90
11925;DHT22;6022;48.768;18.608;2023-03-01T14:44:05;12.90;94.80
11925;DHT22;6022;48.768;18.608;2023-03-01T14:46:40;14.00;95.50
11925;DHT22;6022;48.768;18.608;2023-03-01T14:49:17;12.70;95.50
11925;DHT22;6022;48.768;18.608;2023-03-01T14:51:59;12.50;95.10
11925;DHT22;6022;48.768;18.608;2023-03-01T14:54:41;12.70;95.50
11925;DHT22;6022;48.768;18.608;2023-03-01T14:57:22;12.40;95.10
11925;DHT22;6022;48.768;18.608;2023-03-01T14:59:53;12.50;95.70
11925;DHT22;6022;48.768;18.608;2023-03-01T15:02:24;12.50;96.40
11925;DHT22;6022;48.768;18.608;2023-03-01T15:05:08;12.40;96.20
11925;DHT22;6022;48.768;18.608;2023-03-01T15:07:41;12.30;96.80
11925;DHT22;6022;48.768;18.608;2023-03-01T15:10:23;12.30;96.90
11925;DHT22;6022;48.768;18.608;2023-03-01T15:13:13;12.20;96.10
11925;DHT22;6022;48.768;18.608;2023-03-01T15:15:49;12.40;97.00
11925;DHT22;6022;48.768;18.608;2023-03-01T15:20:54;12.00;98.80
11925;DHT22;6022;48.768;18.608;2023-03-01T15:23:28;11.80;99.40
11925;DHT22;6022;48.768;18.608;2023-03-01T15:25:57;11.80;99.90
11925;DHT22;6022;48.768;18.608;2023-03-01T15:28:28;11.70;99.90
11925;DHT22;6022;48.768;18.608;2023-03-01T15:31:18;11.70;99.90
11925;DHT22;6022;48.768;18.608;2023-03-01T15:33:51;11.60;99.90
11925;DHT22;6022;48.768;18.608;2023-03-01T15:36:42;11.30;99.90
11925;DHT22;6022;48.768;18.608;2023-03-01T15:47:48;11.20;99.90
11925;DHT22;6022;48.768;18.608;2023-03-01T15:50:21;11.10;99.90
11925;DHT22;6022;48.768;18.608;2023-03-01T15:52:51;11.10;99.90
11925;DHT22;6022;48.768;18.608;2023-03-01T15:55:24;10.80;99.90
11925;DHT22;6022;48.768;18.608;2023-03-01T16:00:45;10.80;99.90
11925;DHT22;6022;48.768;18.608;2023-03-01T16:03:26;10.70;99.90
11925;DHT22;6022;48.768;18.608;2023-03-01T16:05:54;10.70;99.90
11925;DHT22;6022;48.768;18.608;2023-03-01T16:08:22;10.60;99.90
11925;DHT22;6022;48.768;18.608;2023-03-01T16:10:50;10.50;99.90
11925;DHT22;6022;48.768;18.608;2023-03-01T16:13:18;10.30;99.90
11925;DHT22;6022;48.768;18.608;2023-03-01T16:16:01;10.40;99.90
11925;DHT22;6022;48.768;18.608;2023-03-01T16:18:28;10.30;99.90
11925;DHT22;6022;48.768;18.608;2023-03-01T16:20:56;10.10;99.90
11925;DHT22;6022;48.768;18.608;2023-03-01T16:23:23;10.30;99.90
11925;DHT22;6022;48.768;18.608;2023-03-01T16:25:51;10.10;99.90
11925;DHT22;6022;48.768;18.608;2023-03-01T16:28:20;10.10;99.90
11925;DHT22;6022;48.768;18.608;2023-03-01T16:30:50;9.90;99.90
11925;DHT22;6022;48.768;18.608;2023-03-01T16:33:18;9.60;99.90
11925;DHT22;6022;48.768;18.608;2023-03-01T16:36:07;9.60;99.90
11925;DHT22;6022;48.768;18.608;2023-03-01T16:38:38;9.60;99.90
11925;DHT22;6022;48.768;18.608;2023-03-01T16:41:11;9.60;99.90
11925;DHT22;6022;48.768;18.608;2023-03-01T16:43:44;9.50;99.90
11925;DHT22;6022;48.768;18.608;2023-03-01T16:46:16;9.40;99.90
11925;DHT22;6022;48.768;18.608;2023-03-01T16:48:51;9.30;99.90
11925;DHT22;6022;48.768;18.608;2023-03-01T16:51:19;9.70;99.90
11925;DHT22;6022;48.768;18.608;2023-03-01T16:53:48;9.60;99.90
11925;DHT22;6022;48.768;18.608;2023-03-01T16:56:17;9.30;99.90
11925;DHT22;6022;48.768;18.608;2023-03-01T16:58:46;9.20;99.90
11925;DHT22;6022;48.768;18.608;2023-03-01T17:01:17;9.20;99.90
11925;DHT22;6022;48.768;18.608;2023-03-01T17:03:47;9.40;99.90
11925;DHT22;6022;48.768;18.608;2023-03-01T17:06:19;9.10;99.90
11925;DHT22;6022;48.768;18.608;2023-03-01T17:08:51;9.00;99.90
11925;DHT22;6022;48.768;18.608;2023-03-01T17:11:28;8.90;99.90
11925;DHT22;6022;48.768;18.608;2023-03-01T17:14:05;8.90;99.90
11925;DHT22;6022;48.768;18.608;2023-03-01T17:16:33;8.80;99.90
11925;DHT22;6022;48.768;18.608;2023-03-01T17:19:04;8.70;99.90
11925;DHT22;6022;48.768;18.608;2023-03-01T17:21:32;8.40;99.90
11925;DHT22;6022;48.768;18.608;2023-03-01T17:24:01;8.30;99.90
11925;DHT22;6022;48.768;18.608;2023-03-01T17:26:29;8.30;99.90
11925;DHT22;6022;48.768;18.608;2023-03-01T17:29:09;7.90;99.90
11925;DHT22;6022;48.768;18.608;2023-03-01T17:31:42;7.70;99.90
11925;DHT22;6022;48.768;18.608;2023-03-01T17:34:22;7.60;99.90
11925;DHT22;6022;48.768;18.608;2023-03-01T17:36:51;7.60;99.90
11925;DHT22;6022;48.768;18.608;2023-03-01T17:39:50;7.60;99.90
11925;DHT22;6022;48.768;18.608;2023-03-01T17:42:42;7.50;99.90
11925;DHT22;6022;48.768;18.608;2023-03-01T17:45:13;7.20;99.90
11925;DHT22;6022;48.768;18.608;2023-03-01T17:47:45;7.30;99.90
11925;DHT22;6022;48.768;18.608;2023-03-01T17:50:13;7.30;99.90
11925;DHT22;6022;48.768;18.608;2023-03-01T17:52:40;7.30;99.90
11925;DHT22;6022;48.768;18.608;2023-03-01T17:55:09;6.90;99.90
11925;DHT22;6022;48.768;18.608;2023-03-01T17:57:39;7.10;99.90
11925;DHT22;6022;48.768;18.608;2023-03-01T18:00:38;7.00;99.90
11925;DHT22;6022;48.768;18.608;2023-03-01T18:03:11;6.90;99.90
11925;DHT22;6022;48.768;18.608;2023-03-01T18:05:43;6.50;99.90
11925;DHT22;6022;48.768;18.608;2023-03-01T18:08:11;6.60;99.90
11925;DHT22;6022;48.768;18.608;2023-03-01T18:10:39;6.30;99.90
11925;DHT22;6022;48.768;18.608;2023-03-01T18:13:17;6.80;99.90
11925;DHT22;6022;48.768;18.608;2023-03-01T18:15:45;6.90;99.90